Time;durP1;ratioP1;P1;durP2;ratioP2;P2;SDS_P1;SDS_P2;PMS_P1;PMS_P2;Temp;Humidity;BMP_temperature;BMP_pressure;BME280_temperature;BME280_humidity;BME280_pressure;Samples;Min_cycle;Max_cycle;Signal;HPM_P1;HPM_P2
2021/12/12 00:02:50;;;;;;;;;;;;;;;12.12;64.45;101960.94;5308134;23;19927;-92
2021/12/12 00:06:09;;;;;;;;;;;;;;;11.50;67.43;101970.31;4917572;29;19953;-91
2021/12/12 00:08:35;;;;;;;;;;;;;;;11.33;67.92;101960.91;4927116;29;19986;-89
2021/12/12 00:11:21;;;;;;;;;;;;;;;11.89;66.64;101956.31;4941374;29;19926;-92
2021/12/12 00:13:50;;;;;;;;;;;;;;;11.25;67.60;101952.16;4951013;28;19942;-91
2021/12/12 00:19:07;;;;;;;;;;;;;;;12.05;65.54;101941.31;5003477;23;19993;-91
2021/12/12 00:21:34;;;;;;;;;;;;;;;11.99;66.39;101935.25;4987255;28;19923;-91
2021/12/12 00:24:00;;;;;;;;;;;;;;;11.97;66.31;101934.38;4962348;29;19922;-91
2021/12/12 00:26:32;;;;;;;;;;;;;;;11.64;67.16;101921.03;4963413;29;19977;-91
2021/12/12 00:29:00;;;;;;;;;;;;;;;12.51;64.24;101924.25;4958931;29;19923;-90
2021/12/12 00:31:25;;;;;;;;;;;;;;;11.99;66.37;101917.13;4966586;28;19911;-90
2021/12/12 00:34:07;;;;;;;;;;;;;;;12.28;65.01;101926.00;4975548;28;19919;-91
2021/12/12 00:36:40;;;;;;;;;;;;;;;11.87;66.19;101925.69;4976143;28;19957;-92
2021/12/12 00:39:35;;;;;;;;;;;;;;;11.73;66.83;101917.13;4964182;28;19925;-92
2021/12/12 00:42:15;;;;;;;;;;;;;;;11.71;66.15;101911.78;4939754;29;19969;-90
2021/12/12 00:47:12;;;;;;;;;;;;;;;11.97;66.92;101916.31;4970035;28;19927;-88
2021/12/12 00:49:39;;;;;;;;;;;;;;;11.70;67.50;101913.59;4974343;28;19919;-88
2021/12/12 00:52:12;;;;;;;;;;;;;;;11.43;68.22;101912.75;4953114;28;19950;-88
2021/12/12 00:54:43;;;;;;;;;;;;;;;11.16;69.03;101919.97;4967708;28;19922;-88
2021/12/12 00:57:11;;;;;;;;;;;;;;;11.66;67.21;101911.94;4967559;29;19919;-90
2021/12/12 00:59:44;;;;;;;;;;;;;;;12.23;64.96;101906.31;4953055;29;19930;-89
2021/12/12 01:02:13;;;;;;;;;;;;;;;12.22;65.36;101915.41;4966652;29;19919;-90
2021/12/12 01:04:44;;;;;;;;;;;;;;;12.46;64.15;101907.28;4963258;29;19994;-89
2021/12/12 01:07:21;;;;;;;;;;;;;;;11.68;65.61;101923.63;4963257;29;19926;-90
2021/12/12 01:09:54;;;;;;;;;;;;;;;11.73;66.82;101906.28;5051708;23;19955;-92
2021/12/12 01:12:29;;;;;;;;;;;;;;;11.18;70.57;101918.97;4950402;29;19926;-92
2021/12/12 01:15:17;;;;;;;;;;;;;;;11.77;68.36;101903.41;4950450;29;19942;-91
2021/12/12 01:20:37;;;;;;;;;;;;;;;11.84;67.31;101902.25;5053898;23;19926;-92
2021/12/12 01:23:12;;;;;;;;;;;;;;;10.85;71.25;101906.53;4950311;29;19918;-91
2021/12/12 01:25:43;;;;;;;;;;;;;;;11.75;69.97;101902.59;4949490;29;19939;-92
2021/12/12 01:30:43;;;;;;;;;;;;;;;12.11;67.95;101896.81;4948074;29;19927;-92
2021/12/12 01:33:20;;;;;;;;;;;;;;;11.30;70.93;101890.56;4947769;29;19923;-93
2021/12/12 01:35:46;;;;;;;;;;;;;;;11.58;72.24;101908.63;4947817;29;19919;-93
2021/12/12 01:41:01;;;;;;;;;;;;;;;10.59;73.44;101910.94;4954080;29;19909;-93
2021/12/12 01:43:27;;;;;;;;;;;;;;;11.38;72.61;101903.00;4950488;29;19978;-92
2021/12/12 01:46:12;;;;;;;;;;;;;;;11.36;71.07;101908.47;4950474;29;19919;-92
2021/12/12 01:48:49;;;;;;;;;;;;;;;11.44;71.24;101906.34;4935149;28;19919;-92
2021/12/12 01:51:16;;;;;;;;;;;;;;;11.81;71.06;101910.50;4951356;29;19934;-93
2021/12/12 01:53:44;;;;;;;;;;;;;;;11.34;71.81;101894.97;4950820;29;20347;-91
2021/12/12 01:56:26;;;;;;;;;;;;;;;10.92;74.28;101890.03;4950350;29;19919;-93
2021/12/12 01:59:05;;;;;;;;;;;;;;;11.59;70.70;101888.69;4949724;29;19927;-92
2021/12/12 02:01:35;;;;;;;;;;;;;;;11.49;73.52;101887.25;4952764;29;20010;-91
2021/12/12 02:04:08;;;;;;;;;;;;;;;11.05;74.46;101881.50;4951778;29;19919;-92
2021/12/12 02:06:33;;;;;;;;;;;;;;;11.19;73.82;101884.66;4951116;29;19919;-93
2021/12/12 02:09:00;;;;;;;;;;;;;;;11.52;72.79;101882.59;4952115;29;20265;-93
2021/12/12 02:11:30;;;;;;;;;;;;;;;11.48;72.09;101877.34;4951270;29;19927;-92
2021/12/12 02:13:56;;;;;;;;;;;;;;;11.78;72.04;101869.06;4951624;29;19926;-93
2021/12/12 02:16:27;;;;;;;;;;;;;;;11.47;72.81;101879.19;4952824;29;19918;-91
2021/12/12 02:18:58;;;;;;;;;;;;;;;11.95;70.94;101876.63;4954724;29;19914;-90
2021/12/12 02:21:57;;;;;;;;;;;;;;;11.80;72.14;101880.75;4952424;29;19914;-89
2021/12/12 02:35:31;;;;;;;;;;;;;;;11.86;70.94;101881.38;4958721;28;19946;-90
2021/12/12 02:37:57;;;;;;;;;;;;;;;11.68;71.78;101877.53;4955210;29;19998;-90
2021/12/12 02:40:30;;;;;;;;;;;;;;;11.63;72.72;101881.34;4951374;29;19919;-93
2021/12/12 02:42:55;;;;;;;;;;;;;;;11.49;73.50;101874.59;4950059;29;19918;-92
2021/12/12 02:45:23;;;;;;;;;;;;;;;12.42;70.00;101871.22;4949837;29;19915;-92
2021/12/12 02:47:56;;;;;;;;;;;;;;;11.64;72.73;101865.03;4949116;29;19919;-91
2021/12/12 02:50:28;;;;;;;;;;;;;;;11.38;72.91;101870.47;4948825;29;20352;-92
2021/12/12 02:52:56;;;;;;;;;;;;;;;11.67;72.88;101873.06;4948173;29;19926;-93
2021/12/12 02:55:33;;;;;;;;;;;;;;;11.43;72.61;101871.19;4947271;29;19919;-91
2021/12/12 02:58:00;;;;;;;;;;;;;;;11.83;72.75;101872.50;4947708;29;19919;-91
2021/12/12 03:00:28;;;;;;;;;;;;;;;11.46;73.87;101871.09;4947142;29;20382;-91
2021/12/12 03:02:58;;;;;;;;;;;;;;;12.12;71.98;101870.56;4946333;29;20385;-92
2021/12/12 03:05:24;;;;;;;;;;;;;;;11.51;73.24;101877.25;4946387;29;19919;-93
2021/12/12 03:07:50;;;;;;;;;;;;;;;11.99;71.84;101870.16;4947461;29;19915;-93
2021/12/12 03:10:20;;;;;;;;;;;;;;;11.63;73.50;101868.66;4948347;29;20440;-92
2021/12/12 03:12:46;;;;;;;;;;;;;;;11.45;72.67;101863.91;4948369;29;19998;-92
2021/12/12 03:15:18;;;;;;;;;;;;;;;11.61;71.32;101869.66;4949380;29;19919;-92
2021/12/12 03:17:51;;;;;;;;;;;;;;;11.77;71.72;101867.28;4947338;29;19903;-92
2021/12/12 03:20:31;;;;;;;;;;;;;;;11.42;72.82;101869.44;4949691;29;22304;-91
2021/12/12 03:23:29;;;;;;;;;;;;;;;11.43;74.46;101854.94;4949767;29;19918;-93
2021/12/12 03:25:59;;;;;;;;;;;;;;;11.44;73.76;101856.72;5039630;23;19928;-91
2021/12/12 03:28:25;;;;;;;;;;;;;;;11.20;73.93;101856.59;4925227;29;19946;-91
2021/12/12 03:30:52;;;;;;;;;;;;;;;11.41;73.31;101854.09;4909496;29;19919;-92
2021/12/12 03:33:21;;;;;;;;;;;;;;;11.73;72.99;101852.06;4909213;29;19951;-94
2021/12/12 03:35:48;;;;;;;;;;;;;;;11.82;71.59;101865.28;4910466;29;19966;-91
2021/12/12 03:38:13;;;;;;;;;;;;;;;11.84;71.87;101853.47;4912973;29;19919;-90
2021/12/12 03:40:39;;;;;;;;;;;;;;;12.22;70.58;101858.41;4929550;29;19927;-91
2021/12/12 03:43:06;;;;;;;;;;;;;;;11.53;72.93;101842.84;4925548;29;19924;-91
2021/12/12 03:45:32;;;;;;;;;;;;;;;11.58;72.36;101853.50;4909768;29;20347;-92
2021/12/12 03:48:06;;;;;;;;;;;;;;;12.33;70.58;101853.44;4909337;29;19919;-92
2021/12/12 03:50:33;;;;;;;;;;;;;;;12.09;70.32;101862.53;4909495;29;19938;-91
2021/12/12 03:52:59;;;;;;;;;;;;;;;12.26;70.98;101870.94;4909027;29;19923;-90
2021/12/12 03:55:26;;;;;;;;;;;;;;;12.27;70.19;101866.38;4908078;29;20338;-91
2021/12/12 03:57:52;;;;;;;;;;;;;;;12.39;68.87;101874.94;4908039;29;19924;-91
2021/12/12 04:00:22;;;;;;;;;;;;;;;12.64;69.80;101868.53;4924849;29;19995;-91
2021/12/12 04:02:48;;;;;;;;;;;;;;;12.76;68.91;101870.75;4907956;29;19916;-92
2021/12/12 04:05:13;;;;;;;;;;;;;;;13.38;67.13;101868.25;4923839;29;20039;-91
2021/12/12 04:07:39;;;;;;;;;;;;;;;12.13;71.51;101875.06;4925589;29;19958;-90
2021/12/12 04:10:05;;;;;;;;;;;;;;;13.23;67.68;101874.31;4926711;29;20306;-92
2021/12/12 04:12:31;;;;;;;;;;;;;;;12.89;69.28;101879.31;4909010;29;19924;-93
2021/12/12 04:14:56;;;;;;;;;;;;;;;12.34;72.28;101876.94;4924671;29;20099;-92
2021/12/12 04:17:24;;;;;;;;;;;;;;;12.52;70.18;101878.06;4925449;29;19923;-92
2021/12/12 04:19:51;;;;;;;;;;;;;;;12.36;70.39;101864.19;4910531;29;19919;-93
2021/12/12 04:22:17;;;;;;;;;;;;;;;12.55;71.29;101874.34;4911560;29;19920;-93
2021/12/12 04:24:45;;;;;;;;;;;;;;;12.54;70.86;101868.00;4926410;29;19916;-92
2021/12/12 04:27:11;;;;;;;;;;;;;;;12.95;68.48;101867.28;4910134;29;19984;-94
2021/12/12 04:29:38;;;;;;;;;;;;;;;12.87;70.24;101864.88;4909088;29;19919;-92
2021/12/12 04:32:15;;;;;;;;;;;;;;;12.61;70.09;101857.81;4909841;29;19927;-92
2021/12/12 04:34:42;;;;;;;;;;;;;;;12.50;70.98;101876.34;4916006;29;19920;-90
2021/12/12 04:37:08;;;;;;;;;;;;;;;13.53;67.01;101868.53;4935967;29;19914;-92
2021/12/12 04:39:37;;;;;;;;;;;;;;;12.15;70.81;101870.44;4920566;29;19982;-92
2021/12/12 04:42:10;;;;;;;;;;;;;;;12.59;70.53;101875.97;4919774;29;19947;-92
2021/12/12 04:44:37;;;;;;;;;;;;;;;12.96;69.90;101866.34;4920481;29;19951;-92
2021/12/12 04:49:56;;;;;;;;;;;;;;;12.86;70.38;101868.56;4922951;29;19946;-93
2021/12/12 04:52:33;;;;;;;;;;;;;;;13.21;68.57;101865.31;4920729;29;19927;-92
2021/12/12 04:54:59;;;;;;;;;;;;;;;13.18;68.43;101882.66;4931067;29;19962;-93
2021/12/12 04:57:34;;;;;;;;;;;;;;;13.21;69.20;101878.91;4929911;29;19930;-93
2021/12/12 05:00:03;;;;;;;;;;;;;;;13.51;68.16;101878.56;4914840;29;19923;-93
2021/12/12 05:02:52;;;;;;;;;;;;;;;13.09;70.42;101878.47;4915893;29;19920;-92
2021/12/12 05:05:21;;;;;;;;;;;;;;;13.29;69.53;101884.91;4897217;29;19948;-91
2021/12/12 05:07:57;;;;;;;;;;;;;;;13.61;67.44;101883.53;4914448;29;20412;-92
2021/12/12 05:10:30;;;;;;;;;;;;;;;13.73;66.33;101892.13;4915689;29;19927;-93
2021/12/12 05:13:05;;;;;;;;;;;;;;;13.92;66.86;101886.72;4930694;29;19920;-95
2021/12/12 05:15:33;;;;;;;;;;;;;;;13.29;68.83;101893.06;4930679;29;19923;-94
2021/12/12 05:18:02;;;;;;;;;;;;;;;13.57;67.02;101891.91;4913953;29;20205;-93
2021/12/12 05:20:33;;;;;;;;;;;;;;;13.67;67.68;101893.28;4914014;29;20006;-93
2021/12/12 05:23:01;;;;;;;;;;;;;;;13.95;67.10;101892.03;4915133;29;19961;-93
2021/12/12 05:25:31;;;;;;;;;;;;;;;13.78;67.66;101896.41;4934512;28;19938;-92
2021/12/12 05:28:01;;;;;;;;;;;;;;;13.73;66.81;101893.00;4952992;29;19930;-94
2021/12/12 05:30:29;;;;;;;;;;;;;;;13.61;68.22;101891.69;4940813;29;19946;-93
2021/12/12 05:32:57;;;;;;;;;;;;;;;13.95;67.58;101890.22;4962096;28;19933;-93
2021/12/12 05:35:32;;;;;;;;;;;;;;;13.33;69.73;101904.69;4961938;28;19907;-93
2021/12/12 05:37:58;;;;;;;;;;;;;;;13.65;69.40;101900.63;4942101;28;19909;-93
2021/12/12 05:40:25;;;;;;;;;;;;;;;14.36;67.22;101897.44;4956530;28;19919;-94
2021/12/12 05:42:59;;;;;;;;;;;;;;;14.51;65.14;101896.72;4949919;29;19926;-93
2021/12/12 05:45:24;;;;;;;;;;;;;;;13.41;70.57;101894.41;4933963;29;19923;-92
2021/12/12 05:47:50;;;;;;;;;;;;;;;13.70;68.61;101897.69;4949794;29;19929;-92
2021/12/12 05:50:16;;;;;;;;;;;;;;;13.89;67.91;101898.66;4950201;28;19930;-92
2021/12/12 05:52:42;;;;;;;;;;;;;;;12.97;70.79;101899.81;4949669;29;19919;-92
2021/12/12 05:55:08;;;;;;;;;;;;;;;13.59;69.63;101906.34;4949789;29;19955;-93
2021/12/12 05:57:34;;;;;;;;;;;;;;;13.76;69.68;101909.19;4948597;29;19998;-91
2021/12/12 06:00:00;;;;;;;;;;;;;;;14.40;66.12;101909.94;4949966;28;19923;-91
2021/12/12 06:02:26;;;;;;;;;;;;;;;13.68;67.87;101908.66;4948657;29;19919;-91
2021/12/12 06:04:54;;;;;;;;;;;;;;;14.42;67.17;101908.03;4949468;28;19929;-90
2021/12/12 06:07:21;;;;;;;;;;;;;;;13.76;69.18;101909.19;4949567;29;19919;-90
2021/12/12 06:09:47;;;;;;;;;;;;;;;14.18;67.72;101908.22;4949127;28;19923;-91
2021/12/12 06:12:14;;;;;;;;;;;;;;;13.62;71.20;101917.06;4949246;28;19982;-90
2021/12/12 06:14:40;;;;;;;;;;;;;;;14.19;69.18;101919.97;4949462;29;19919;-91
2021/12/12 06:17:10;;;;;;;;;;;;;;;14.10;68.81;101928.56;4949652;29;20005;-91
2021/12/12 06:19:36;;;;;;;;;;;;;;;13.81;69.46;101922.56;4949427;29;19925;-91
2021/12/12 06:22:02;;;;;;;;;;;;;;;13.73;70.48;101925.63;4948097;29;20369;-90
2021/12/12 06:24:28;;;;;;;;;;;;;;;14.12;68.91;101913.94;4949177;29;20026;-90
2021/12/12 06:26:55;;;;;;;;;;;;;;;14.51;66.44;101926.66;4949513;29;19923;-91
2021/12/12 06:29:20;;;;;;;;;;;;;;;14.82;65.70;101922.50;4949712;29;19919;-90
2021/12/12 06:31:47;;;;;;;;;;;;;;;14.81;66.13;101925.28;4949511;28;19962;-91
2021/12/12 06:34:14;;;;;;;;;;;;;;;14.66;66.73;101925.09;4949482;29;19993;-91
2021/12/12 06:36:39;;;;;;;;;;;;;;;14.23;68.71;101920.72;4949442;29;19989;-90
2021/12/12 06:39:06;;;;;;;;;;;;;;;14.51;67.98;101923.06;4948711;29;20437;-91
2021/12/12 06:41:33;;;;;;;;;;;;;;;13.91;70.07;101929.38;4948878;29;20266;-91
2021/12/12 06:44:01;;;;;;;;;;;;;;;14.20;69.41;101929.03;4948487;29;19919;-92
2021/12/12 06:46:27;;;;;;;;;;;;;;;13.95;70.48;101930.13;4948737;29;19923;-90
2021/12/12 06:48:52;;;;;;;;;;;;;;;13.47;71.23;101934.94;4932705;29;20045;-90
2021/12/12 06:51:18;;;;;;;;;;;;;;;14.71;67.64;101931.19;4948939;28;19954;-91
2021/12/12 06:53:45;;;;;;;;;;;;;;;14.34;69.22;101930.19;4948297;29;19914;-90
2021/12/12 06:56:13;;;;;;;;;;;;;;;14.22;69.07;101940.72;4947701;28;19927;-90
2021/12/12 06:58:41;;;;;;;;;;;;;;;14.25;68.60;101925.16;4948400;29;19929;-90
2021/12/12 07:01:11;;;;;;;;;;;;;;;14.64;68.30;101931.56;4949582;28;20035;-91
2021/12/12 07:03:37;;;;;;;;;;;;;;;14.59;68.32;101928.16;4948939;29;19919;-91
2021/12/12 07:06:03;;;;;;;;;;;;;;;14.76;68.09;101944.59;4949332;29;19990;-90
2021/12/12 07:08:28;;;;;;;;;;;;;;;14.56;67.67;101944.63;4949368;29;19919;-91
2021/12/12 07:10:54;;;;;;;;;;;;;;;14.59;68.56;101939.91;4945039;29;19919;-92
2021/12/12 07:13:22;;;;;;;;;;;;;;;14.74;67.91;101941.06;4941845;28;19927;-90
2021/12/12 07:15:50;;;;;;;;;;;;;;;14.62;68.86;101955.25;4941166;29;19925;-89
2021/12/12 07:18:17;;;;;;;;;;;;;;;14.48;69.20;101947.72;4941790;29;19919;-90
2021/12/12 07:20:43;;;;;;;;;;;;;;;14.11;70.65;101962.97;4942316;28;19926;-90
2021/12/12 07:23:10;;;;;;;;;;;;;;;14.48;69.80;101962.19;4942493;29;19919;-90
2021/12/12 07:25:37;;;;;;;;;;;;;;;14.38;69.72;101966.28;4943008;29;19930;-90
2021/12/12 07:28:03;;;;;;;;;;;;;;;14.84;68.87;101956.00;4942809;29;19910;-90
2021/12/12 07:30:29;;;;;;;;;;;;;;;15.05;67.17;101956.81;4941763;29;19923;-89
2021/12/12 07:32:56;;;;;;;;;;;;;;;14.78;67.94;101956.31;4942375;29;19922;-90
2021/12/12 07:35:32;;;;;;;;;;;;;;;14.46;69.47;101955.97;4941561;29;19922;-90
2021/12/12 07:37:58;;;;;;;;;;;;;;;15.20;68.53;101957.91;4940990;29;20018;-90
2021/12/12 07:40:23;;;;;;;;;;;;;;;15.29;66.19;101951.09;4942964;29;19980;-91
2021/12/12 07:42:49;;;;;;;;;;;;;;;14.61;68.61;101957.09;4942857;29;19919;-90
2021/12/12 07:45:15;;;;;;;;;;;;;;;13.70;72.59;101969.28;4943904;29;19919;-90
2021/12/12 07:47:41;;;;;;;;;;;;;;;16.19;64.22;101961.06;4945269;29;19914;-90
2021/12/12 07:50:08;;;;;;;;;;;;;;;14.71;68.68;101966.59;4948922;29;19926;-92
2021/12/12 07:52:34;;;;;;;;;;;;;;;15.09;67.41;101973.03;4951005;29;19918;-88
2021/12/12 07:54:59;;;;;;;;;;;;;;;15.58;67.05;101968.75;4948806;29;19934;-91
2021/12/12 07:57:27;;;;;;;;;;;;;;;14.08;70.55;101980.31;4943794;29;20369;-90
2021/12/12 07:59:53;;;;;;;;;;;;;;;15.20;66.83;101979.72;4942796;29;19907;-90
2021/12/12 08:02:20;;;;;;;;;;;;;;;14.09;71.27;101981.22;4942718;29;20383;-92
2021/12/12 08:04:46;;;;;;;;;;;;;;;14.82;69.76;101987.88;4941125;29;19919;-90
2021/12/12 08:07:13;;;;;;;;;;;;;;;14.81;70.07;101991.59;4941561;29;19914;-90
2021/12/12 08:09:42;;;;;;;;;;;;;;;14.48;70.63;101988.56;4942631;29;19919;-91
2021/12/12 08:12:09;;;;;;;;;;;;;;;14.47;72.25;102003.13;4941111;29;20005;-91
2021/12/12 08:14:36;;;;;;;;;;;;;;;15.06;69.58;101994.00;4942721;29;19954;-92
2021/12/12 08:17:02;;;;;;;;;;;;;;;15.01;69.14;102000.66;4942358;29;19919;-93
2021/12/12 08:19:29;;;;;;;;;;;;;;;15.35;67.63;102004.44;4944337;29;19923;-93
2021/12/12 08:22:03;;;;;;;;;;;;;;;15.12;68.89;102001.00;4946431;29;20280;-93
2021/12/12 08:24:33;;;;;;;;;;;;;;;15.68;66.93;102007.34;4946402;29;19923;-93
2021/12/12 08:26:58;;;;;;;;;;;;;;;15.02;69.14;102018.75;4944171;29;19947;-94
2021/12/12 08:29:24;;;;;;;;;;;;;;;14.83;70.56;102016.91;4944663;29;19974;-92
2021/12/12 08:31:50;;;;;;;;;;;;;;;14.49;75.65;102022.97;4943535;29;19930;-94
2021/12/12 08:34:15;;;;;;;;;;;;;;;14.66;71.27;102025.88;4948164;29;19903;-92
2021/12/12 08:36:45;;;;;;;;;;;;;;;15.27;68.90;102021.19;4959502;28;19923;-94
2021/12/12 08:39:11;;;;;;;;;;;;;;;14.79;71.55;102020.72;4956355;28;19910;-92
2021/12/12 08:41:36;;;;;;;;;;;;;;;15.51;68.55;102030.00;4948566;29;19920;-93
2021/12/12 08:44:13;;;;;;;;;;;;;;;15.72;66.27;102032.63;4930943;29;19974;-92
2021/12/12 08:46:47;;;;;;;;;;;;;;;16.15;65.36;102024.97;4928450;29;19919;-89
2021/12/12 08:49:14;;;;;;;;;;;;;;;14.98;70.70;102033.50;4948547;29;19999;-92
2021/12/12 08:51:49;;;;;;;;;;;;;;;15.56;69.08;102032.50;4937622;29;19947;-91
2021/12/12 08:54:23;;;;;;;;;;;;;;;15.90;67.90;102039.03;4950395;29;20038;-87
2021/12/12 08:56:49;;;;;;;;;;;;;;;15.26;69.79;102034.91;4932084;29;20405;-89
2021/12/12 08:59:16;;;;;;;;;;;;;;;15.70;69.39;102037.25;4944191;29;19919;-91
2021/12/12 09:01:42;;;;;;;;;;;;;;;14.02;74.12;102043.19;4944250;29;19975;-93
2021/12/12 09:04:08;;;;;;;;;;;;;;;15.29;70.68;102034.75;4941644;29;19919;-93
2021/12/12 09:06:39;;;;;;;;;;;;;;;14.81;69.63;102040.63;4944324;29;19919;-93
2021/12/12 09:09:14;;;;;;;;;;;;;;;14.86;72.15;102057.63;4945492;29;20452;-91
2021/12/12 09:11:39;;;;;;;;;;;;;;;15.39;71.06;102057.88;4949116;29;19934;-91
2021/12/12 09:14:27;;;;;;;;;;;;;;;15.29;69.87;102051.97;4945944;29;19919;-91
2021/12/12 09:17:05;;;;;;;;;;;;;;;16.39;66.10;102046.50;4944927;29;19919;-92
2021/12/12 09:19:48;;;;;;;;;;;;;;;15.98;67.58;102063.22;4944858;29;19923;-92
2021/12/12 09:22:24;;;;;;;;;;;;;;;15.82;69.74;102060.34;4947131;29;19919;-93
2021/12/12 09:24:53;;;;;;;;;;;;;;;16.76;64.49;102063.69;4949925;29;19938;-90
2021/12/12 09:27:23;;;;;;;;;;;;;;;15.76;67.88;102062.41;4946783;29;19941;-92
2021/12/12 09:29:52;;;;;;;;;;;;;;;16.11;66.33;102073.41;4944222;29;20320;-93
2021/12/12 09:32:24;;;;;;;;;;;;;;;15.94;68.50;102071.56;4945011;29;19918;-92
2021/12/12 09:37:27;;;;;;;;;;;;;;;15.01;72.15;102090.59;4960025;23;20309;-93
2021/12/12 09:40:21;;;;;;;;;;;;;;;15.30;70.37;102081.03;4949666;29;19919;-94
2021/12/12 09:42:48;;;;;;;;;;;;;;;16.22;68.07;102082.91;4947206;29;20377;-94
2021/12/12 09:45:36;;;;;;;;;;;;;;;15.49;67.77;102086.47;4946591;29;19918;-94
2021/12/12 09:53:48;;;;;;;;;;;;;;;15.66;69.62;102092.97;4951959;29;19926;-94
2021/12/12 09:56:33;;;;;;;;;;;;;;;16.43;66.47;102087.25;4944420;29;19930;-93
2021/12/12 09:59:03;;;;;;;;;;;;;;;15.62;69.89;102088.59;4945677;29;20377;-93
2021/12/12 10:01:30;;;;;;;;;;;;;;;16.38;67.30;102080.25;4944345;29;19919;-93
2021/12/12 10:04:07;;;;;;;;;;;;;;;15.55;69.49;102079.81;4944691;29;20377;-90
2021/12/12 10:06:55;;;;;;;;;;;;;;;15.69;69.36;102082.78;4947955;29;19953;-90
2021/12/12 10:09:29;;;;;;;;;;;;;;;16.30;68.50;102084.28;4931680;29;19925;-93
2021/12/12 10:12:03;;;;;;;;;;;;;;;16.43;65.77;102083.63;4946907;29;19926;-91
2021/12/12 10:14:31;;;;;;;;;;;;;;;16.08;67.56;102083.63;4944552;29;19965;-89
2021/12/12 10:17:09;;;;;;;;;;;;;;;16.21;67.25;102082.00;4943410;29;20353;-90
2021/12/12 10:19:40;;;;;;;;;;;;;;;17.10;63.01;102083.72;4943644;29;19919;-90
2021/12/12 10:22:13;;;;;;;;;;;;;;;15.73;68.45;102086.22;4944747;29;19915;-92
2021/12/12 10:24:54;;;;;;;;;;;;;;;17.06;63.57;102087.56;4944993;29;19958;-93
2021/12/12 10:27:38;;;;;;;;;;;;;;;15.93;67.27;102097.06;4944739;28;19923;-90
2021/12/12 10:30:15;;;;;;;;;;;;;;;16.18;67.48;102094.94;4944430;29;19934;-93
2021/12/12 10:33:00;;;;;;;;;;;;;;;15.76;70.01;102096.97;4943888;29;19910;-90
2021/12/12 10:35:32;;;;;;;;;;;;;;;16.98;64.79;102098.94;4945790;28;19981;-93
2021/12/12 10:38:01;;;;;;;;;;;;;;;16.73;65.81;102085.72;4929859;29;19922;-92
2021/12/12 10:40:39;;;;;;;;;;;;;;;16.17;67.46;102085.88;4943100;29;19926;-90
2021/12/12 10:43:06;;;;;;;;;;;;;;;16.62;64.89;102092.63;4939314;28;19919;-90
2021/12/12 10:45:38;;;;;;;;;;;;;;;17.29;62.23;102089.91;4942141;29;19919;-90
2021/12/12 10:48:04;;;;;;;;;;;;;;;17.05;64.17;102091.31;4942138;29;19919;-90
2021/12/12 10:50:42;;;;;;;;;;;;;;;17.18;63.18;102090.53;4942783;28;20394;-89
2021/12/12 10:53:07;;;;;;;;;;;;;;;16.62;65.85;102091.72;4943301;29;19926;-91
2021/12/12 10:55:39;;;;;;;;;;;;;;;16.10;68.19;102088.00;4944826;29;19926;-86
2021/12/12 10:58:11;;;;;;;;;;;;;;;16.77;65.88;102092.75;4942968;29;20385;-87
2021/12/12 11:00:41;;;;;;;;;;;;;;;16.02;67.88;102086.63;4942756;29;19925;-86
2021/12/12 11:03:10;;;;;;;;;;;;;;;16.51;67.96;102086.84;4942718;29;19923;-86
2021/12/12 11:05:41;;;;;;;;;;;;;;;15.65;70.09;102100.25;4940717;29;19986;-85
2021/12/12 11:08:15;;;;;;;;;;;;;;;16.95;67.38;102102.75;4944023;29;20015;-89
2021/12/12 11:10:41;;;;;;;;;;;;;;;17.18;65.84;102087.78;4927942;29;19921;-90
2021/12/12 11:13:07;;;;;;;;;;;;;;;16.42;66.87;102101.84;4943483;29;19941;-90
2021/12/12 11:15:40;;;;;;;;;;;;;;;17.33;62.99;102098.81;4942139;29;20376;-88
2021/12/12 11:18:08;;;;;;;;;;;;;;;16.50;67.03;102104.22;4925945;29;19918;-86
2021/12/12 11:20:46;;;;;;;;;;;;;;;16.95;66.31;102096.38;4927004;29;19970;-88
2021/12/12 11:23:21;;;;;;;;;;;;;;;17.13;64.91;102106.28;4922680;29;19920;-90
2021/12/12 11:25:57;;;;;;;;;;;;;;;17.22;65.40;102104.91;4925235;29;19926;-89
2021/12/12 11:28:43;;;;;;;;;;;;;;;17.18;63.85;102097.81;4925433;29;19919;-89
2021/12/12 11:31:21;;;;;;;;;;;;;;;16.51;66.49;102103.22;4917933;29;19923;-89
2021/12/12 11:33:48;;;;;;;;;;;;;;;17.03;66.44;102105.06;4951269;29;19965;-88
2021/12/12 11:36:18;;;;;;;;;;;;;;;17.18;64.93;102108.75;4960055;28;19954;-90
2021/12/12 11:39:02;;;;;;;;;;;;;;;16.77;66.95;102110.06;4948231;29;20017;-91
2021/12/12 11:41:38;;;;;;;;;;;;;;;17.35;65.68;102110.59;4947152;29;20308;-92
2021/12/12 11:44:13;;;;;;;;;;;;;;;17.48;66.09;102116.22;4941458;29;20006;-91
2021/12/12 11:46:40;;;;;;;;;;;;;;;17.30;65.75;102120.88;4923398;29;19920;-94
2021/12/12 11:49:15;;;;;;;;;;;;;;;16.57;69.04;102116.56;4908788;29;19983;-90
2021/12/12 11:52:00;;;;;;;;;;;;;;;17.31;64.64;102112.59;4906929;29;19922;-88
2021/12/12 11:54:52;;;;;;;;;;;;;;;17.44;65.59;102109.19;4905127;29;20033;-89
2021/12/12 11:57:40;;;;;;;;;;;;;;;17.46;65.69;102112.72;4903744;29;19926;-90
2021/12/12 12:00:16;;;;;;;;;;;;;;;17.59;63.26;102108.31;4901941;29;19987;-87
2021/12/12 12:03:00;;;;;;;;;;;;;;;17.27;65.78;102113.75;4906562;29;19919;-89
2021/12/12 12:05:47;;;;;;;;;;;;;;;17.43;64.27;102123.84;4928525;29;19934;-89
2021/12/12 12:08:24;;;;;;;;;;;;;;;17.07;65.73;102120.31;4908527;29;19923;-90
2021/12/12 12:11:08;;;;;;;;;;;;;;;17.39;64.61;102124.97;4925649;29;19951;-87
2021/12/12 12:13:49;;;;;;;;;;;;;;;17.40;65.03;102129.47;4950235;29;19938;-90
2021/12/12 12:16:33;;;;;;;;;;;;;;;17.18;67.67;102126.09;4946189;29;19907;-87
2021/12/12 12:19:17;;;;;;;;;;;;;;;16.63;69.02;102135.34;4954284;29;19967;-89
2021/12/12 12:21:58;;;;;;;;;;;;;;;16.45;68.86;102130.84;4959808;29;19954;-88
2021/12/12 12:24:36;;;;;;;;;;;;;;;17.74;65.38;102133.91;4926079;29;19923;-89
2021/12/12 12:27:08;;;;;;;;;;;;;;;17.79;62.82;102125.44;4934995;29;19927;-90
2021/12/12 12:30:02;;;;;;;;;;;;;;;16.88;68.51;102131.38;4934250;29;20401;-88
2021/12/12 12:32:46;;;;;;;;;;;;;;;17.56;66.78;102133.13;4952141;28;20305;-91
2021/12/12 12:35:31;;;;;;;;;;;;;;;16.99;67.67;102134.38;4954888;28;19933;-87
2021/12/12 12:38:08;;;;;;;;;;;;;;;17.47;65.91;102136.38;4910507;29;19928;-89
2021/12/12 12:40:52;;;;;;;;;;;;;;;17.03;68.05;102135.13;4925322;29;20365;-90
2021/12/12 12:43:36;;;;;;;;;;;;;;;17.33;65.20;102140.75;4928190;29;19926;-87
2021/12/12 12:46:08;;;;;;;;;;;;;;;18.03;64.66;102135.00;4917737;29;19920;-85
2021/12/12 12:48:45;;;;;;;;;;;;;;;17.43;67.29;102141.13;4919976;29;19927;-86
2021/12/12 12:51:22;;;;;;;;;;;;;;;18.57;62.29;102137.28;4924741;29;20403;-88
2021/12/12 12:53:50;;;;;;;;;;;;;;;18.04;62.99;102134.03;4911349;29;19924;-89
2021/12/12 12:56:34;;;;;;;;;;;;;;;18.17;63.45;102136.91;4915819;29;19930;-88
2021/12/12 12:59:19;;;;;;;;;;;;;;;19.72;57.59;102143.84;4916103;29;20352;-87
2021/12/12 13:02:13;;;;;;;;;;;;;;;18.56;62.41;102142.84;4900940;29;20378;-88
2021/12/12 13:05:01;;;;;;;;;;;;;;;18.71;62.06;102146.50;4901407;29;19923;-86
2021/12/12 13:07:45;;;;;;;;;;;;;;;18.61;61.33;102151.66;4921147;29;19948;-86
2021/12/12 13:10:13;;;;;;;;;;;;;;;18.81;61.38;102150.47;4906018;29;19927;-88
2021/12/12 13:12:54;;;;;;;;;;;;;;;18.64;63.61;102159.69;4903755;29;19974;-84
2021/12/12 13:15:22;;;;;;;;;;;;;;;18.68;63.23;102157.66;4905232;29;19935;-86
2021/12/12 13:17:54;;;;;;;;;;;;;;;18.55;62.23;102152.03;4922481;29;20402;-87
2021/12/12 13:20:19;;;;;;;;;;;;;;;18.28;64.00;102158.19;4920868;29;19915;-85
2021/12/12 13:22:55;;;;;;;;;;;;;;;17.93;65.34;102150.19;4906111;29;19923;-91
2021/12/12 13:25:29;;;;;;;;;;;;;;;17.44;67.32;102158.44;4905446;29;19963;-88
2021/12/12 13:28:18;;;;;;;;;;;;;;;18.86;60.80;102150.19;4906522;29;20361;-87
2021/12/12 13:31:00;;;;;;;;;;;;;;;19.06;59.53;102151.69;4922432;29;19919;-89
2021/12/12 13:33:29;;;;;;;;;;;;;;;18.84;61.83;102168.56;4921856;29;19916;-89
2021/12/12 13:36:15;;;;;;;;;;;;;;;18.44;62.96;102160.03;4921149;29;19954;-89